OIMB  Birjand Airport

Add Bookmark

Birjand, Iran

Status
Operational
Latitude Longitude
32° 53' 53" N 59° 15' 57" E
32.898056 59.266111
Local (DST + 5) UTC (GMT + 4)
Aug 29, 2014 08:33 Aug 29, 2014 16:03
Sunrise-Sunset Local UTC
Begin Civil Twilight 05:39 01:09
Sunrise 06:04 01:34
Sunset 07:03 14:33
End Civil Twilight 07:28 14:58

Current Weather

METAR Observed VFR
OIMB 291500Z 05010KT CAVOK 28/M18 Q1014 Fri, Aug 29, 2014 @ 15:00 UTC
(1 Hour, 3 Minutes ago)
Visual Flight Rules
Wind Visibility Clouds Conditions
050° at 10 knots (19 kph) 10 km or more
  • Clear skies
  • No significant weather
Temperatures Readings Precipitation
Current Temp 28°C (82°F)
Dewpoint -18°C (-0°F)
Humidity 4%
Altimeter 29.94"Hg
Sea Level Pressure 1014mb
Field Elevation 4891.73'
None Recorded

Additional weather within a 185.2km radius of OIMB

Map ICAO Location
OIMD 170.2km N (342°)

24 Hour Weather History

Loading
-

24 Hour Weather Graphs

Loading
-

CheckWX.com is intended as a tool to help pilots better visualize weather data. It is not intended as a substitute for an official weather briefing obtained from a Flight Service Station. CheckWX.com does not meet the FAA requirements for an official pre-flight weather briefing. Therefore, it's important that pilots still call and obtain an official FSS pre-flight weather briefing.